Tropical Cyclones
[Index]
Main Index Home Page Stock Weather Photos Extreme Storms Discussion Storm News and Storm Chasing Reports Tropical Cyclones / Hurricanes / Typhoons Weather Data and Links Wild Fires / Bushfires Weather Observation Techniques Weather Picture Catalogue Tornado Pictures and Reports Stock Video Footage and DVDs for sale
Season 1988-1989 Tropical Cyclone 198914 Track Map
Season 1988-1989 Summaries: [BoM-AU] [JTWC-AU] [JTWC-SIO] [JTWC-SPAC] [JTWC-SH]
<<- Previous TC | JTWC 1988-1989 Season | Next TC ->>

click for intensity scale information  Lat/long Grid: Show Hide

 Date Labels: Show Hide

Joint Typhoon Warning Centre Cyclone Data

Name: 198914

23 Feb 1989 00:00 UTC to 01 Mar 1989 00:00 UTC

    date/time    lat    long     hPa   cat  kts
1989-02-23 00   28.2   134.5W                 30          
1989-02-23 06   28.3   135.2W                 35          
1989-02-23 12   28.3   136.0W           1     40          
1989-02-23 18   28.2   136.7W           1     50          
1989-02-24 00   28.0   137.4W           2     55          
1989-02-24 06   27.4   138.2W           2     60          
1989-02-24 12   27.0   139.1W           2     65          
1989-02-24 18   26.9   139.6W           2     70          
1989-02-25 00   26.7   140.1W           3     80          
1989-02-25 06   26.5   140.4W           3     85          
1989-02-25 12   26.9   140.6W           3     90          
1989-02-25 18   27.4   140.8W           3     90          
1989-02-26 00   28.0   141.0W           3     80          
1989-02-26 06   28.7   141.1W           3     80          
1989-02-26 12   29.6   141.4W           3     75          
1989-02-26 18   30.5   141.6W           2     70          
1989-02-27 00   31.4   141.8W           2     65          
1989-02-27 06   32.0   141.7W           2     65          
1989-02-27 12   32.3   141.2W           2     60          
1989-02-27 18   32.5   140.8W           1     50          
1989-02-28 00   32.7   140.3W           1     45          
1989-02-28 06   32.9   139.9W           1     40          
1989-02-28 12   33.1   139.5W           1     40          
1989-02-28 18   33.4   139.0W                 35          
1989-03-01 00   33.9   138.4W                 30          
Winds are 1-min average.

Tropical cyclone tracks developed by Michael Bath using data from the Joint Typhoon Warning Centre Best Tracks and Google Maps.


[Australian Severe Weather index] [Copyright Notice] [Email Contacts] [Search This Site] [Privacy Policy]
Document: tropical_cyclone_198914.htm Updated: 18 September 2016